Time;durP1;ratioP1;P1;durP2;ratioP2;P2;SDS_P1;SDS_P2;PMS_P1;PMS_P2;Temp;Humidity;BMP_temperature;BMP_pressure;BME280_temperature;BME280_humidity;BME280_pressure;Samples;Min_cycle;Max_cycle;Signal;HPM_P1;HPM_P2
2021/12/10 00:01:43;;;;;;;18.35;10.00;;;2.90;99.90;;;;;;4949694;28;20031;-83
2021/12/10 00:04:13;;;;;;;19.58;10.55;;;2.90;99.90;;;;;;4957334;28;20107;-83
2021/12/10 00:06:56;;;;;;;20.52;10.20;;;2.90;99.90;;;;;;4947641;28;20020;-81
2021/12/10 00:09:33;;;;;;;21.42;10.82;;;2.80;99.90;;;;;;4941812;29;20047;-81
2021/12/10 00:12:12;;;;;;;18.05;9.55;;;2.80;99.90;;;;;;4941085;29;20042;-81
2021/12/10 00:14:39;;;;;;;19.80;11.18;;;2.80;99.90;;;;;;4941549;29;20058;-82
2021/12/10 00:17:08;;;;;;;18.25;10.32;;;2.80;99.90;;;;;;4941630;29;20027;-82
2021/12/10 00:19:41;;;;;;;17.83;9.75;;;2.80;99.90;;;;;;4925265;29;20032;-81
2021/12/10 00:22:19;;;;;;;17.48;10.07;;;2.70;99.90;;;;;;4940617;29;20044;-85
2021/12/10 00:24:46;;;;;;;21.05;10.20;;;2.70;99.90;;;;;;4938061;29;20031;-85
2021/12/10 00:27:27;;;;;;;16.02;9.55;;;2.80;99.90;;;;;;4939348;29;20051;-84
2021/12/10 00:29:53;;;;;;;17.15;9.95;;;2.70;99.90;;;;;;4941270;29;20059;-81
2021/12/10 00:32:31;;;;;;;16.63;9.98;;;2.70;99.90;;;;;;4940717;29;20008;-82
2021/12/10 00:34:59;;;;;;;16.92;9.95;;;2.70;99.90;;;;;;4941543;29;20028;-81
2021/12/10 00:37:26;;;;;;;17.40;9.68;;;2.70;99.90;;;;;;4941324;29;20048;-81
2021/12/10 00:39:57;;;;;;;14.98;9.50;;;2.70;99.90;;;;;;5067508;23;20070;-90
2021/12/10 00:42:27;;;;;;;18.02;9.48;;;2.70;99.90;;;;;;4956628;29;20042;-89
2021/12/10 00:44:55;;;;;;;16.98;9.65;;;2.70;99.90;;;;;;4959686;29;20039;-89
2021/12/10 00:47:22;;;;;;;15.07;9.32;;;2.70;99.90;;;;;;4949115;29;20098;-89
2021/12/10 00:49:48;;;;;;;15.00;8.90;;;2.80;99.90;;;;;;4948840;29;20031;-91
2021/12/10 00:52:15;;;;;;;13.93;8.88;;;2.80;99.90;;;;;;4948082;29;20034;-90
2021/12/10 00:54:43;;;;;;;15.00;8.75;;;2.90;99.90;;;;;;4950088;29;20054;-89
2021/12/10 00:57:10;;;;;;;14.90;8.43;;;3.00;99.90;;;;;;4957561;28;20034;-88
2021/12/10 00:59:38;;;;;;;10.95;7.35;;;3.00;99.90;;;;;;4967506;28;20059;-89
2021/12/10 01:02:09;;;;;;;11.55;7.30;;;3.10;99.90;;;;;;4982746;28;20026;-89
2021/12/10 01:04:41;;;;;;;11.18;7.68;;;3.20;99.90;;;;;;4972472;29;20039;-90
2021/12/10 01:07:12;;;;;;;12.98;7.93;;;3.20;99.90;;;;;;4960904;29;20031;-90
2021/12/10 01:09:41;;;;;;;13.88;8.68;;;3.20;99.90;;;;;;4963595;29;20051;-89
2021/12/10 01:12:17;;;;;;;12.48;7.93;;;3.20;99.90;;;;;;4960927;29;20035;-90
2021/12/10 01:15:19;;;;;;;10.57;7.07;;;3.20;99.90;;;;;;4957799;29;20034;-88
2021/12/10 01:26:25;;;;;;;10.95;6.88;;;3.20;99.90;;;;;;4968487;29;20379;-90
2021/12/10 01:28:55;;;;;;;10.90;7.40;;;3.20;99.90;;;;;;4935886;29;20043;-88
2021/12/10 01:31:21;;;;;;;10.95;7.30;;;3.10;99.90;;;;;;4951173;29;20579;-89
2021/12/10 01:33:49;;;;;;;11.52;7.38;;;3.10;99.90;;;;;;4954852;29;20024;-89
2021/12/10 01:36:16;;;;;;;12.25;7.68;;;3.10;99.90;;;;;;4980043;28;20031;-88
2021/12/10 01:38:44;;;;;;;11.52;7.55;;;3.00;99.90;;;;;;4963870;28;20078;-89
2021/12/10 01:41:13;;;;;;;12.43;7.60;;;3.00;99.90;;;;;;4966622;28;20043;-89
2021/12/10 01:43:42;;;;;;;11.02;7.22;;;3.00;99.90;;;;;;4966164;28;20039;-90
2021/12/10 01:46:14;;;;;;;11.45;7.80;;;2.90;99.90;;;;;;4966125;28;20011;-88
2021/12/10 01:48:51;;;;;;;12.27;8.45;;;2.90;99.90;;;;;;4982454;28;20039;-88
2021/12/10 01:51:21;;;;;;;12.57;7.93;;;3.00;99.90;;;;;;4964085;28;20063;-88
2021/12/10 01:53:51;;;;;;;13.32;8.23;;;3.00;99.90;;;;;;4983338;28;20026;-89
2021/12/10 01:56:23;;;;;;;10.98;7.40;;;2.90;99.90;;;;;;4964852;28;20099;-88
2021/12/10 01:58:51;;;;;;;11.80;7.30;;;3.00;99.90;;;;;;4964703;28;20032;-87
2021/12/10 02:01:21;;;;;;;10.95;7.18;;;2.90;99.90;;;;;;4953396;29;20027;-89
2021/12/10 02:03:52;;;;;;;13.25;8.13;;;2.90;99.90;;;;;;4952611;29;20399;-89
2021/12/10 02:06:18;;;;;;;13.82;6.97;;;2.90;99.90;;;;;;4953515;29;20034;-87
2021/12/10 02:08:44;;;;;;;13.65;7.68;;;2.90;99.90;;;;;;4954195;29;20063;-88
2021/12/10 02:11:10;;;;;;;13.60;7.88;;;2.80;99.90;;;;;;4953413;29;20551;-88
2021/12/10 02:13:37;;;;;;;14.52;8.43;;;2.80;99.90;;;;;;4968171;29;20031;-89
2021/12/10 02:16:03;;;;;;;19.55;7.82;;;2.80;99.90;;;;;;4976959;28;20364;-87
2021/12/10 02:18:29;;;;;;;12.20;7.53;;;2.80;99.90;;;;;;4952229;29;20023;-89
2021/12/10 02:21:01;;;;;;;12.73;8.13;;;2.70;99.90;;;;;;4953403;29;20035;-88
2021/12/10 02:23:32;;;;;;;12.32;7.53;;;2.70;99.90;;;;;;4969966;29;20035;-87
2021/12/10 02:26:01;;;;;;;14.55;7.90;;;2.70;99.90;;;;;;4955461;29;20114;-89
2021/12/10 02:28:29;;;;;;;14.43;8.40;;;2.70;99.90;;;;;;4969041;29;20073;-89
2021/12/10 02:30:56;;;;;;;13.63;8.15;;;2.80;99.90;;;;;;4966826;29;20038;-91
2021/12/10 02:33:22;;;;;;;14.32;7.95;;;2.70;99.90;;;;;;4950645;29;20050;-89
2021/12/10 02:35:48;;;;;;;15.40;8.25;;;2.70;99.90;;;;;;4966601;29;20024;-89
2021/12/10 02:38:17;;;;;;;15.35;8.25;;;2.80;99.90;;;;;;4967493;29;20028;-89
2021/12/10 02:40:44;;;;;;;14.30;8.23;;;2.80;99.90;;;;;;4950973;29;20458;-88
2021/12/10 02:43:12;;;;;;;13.05;7.57;;;2.80;99.90;;;;;;4950470;29;20038;-90
2021/12/10 02:45:40;;;;;;;11.80;7.22;;;2.90;99.90;;;;;;4935947;29;20031;-90
2021/12/10 02:48:07;;;;;;;11.93;7.22;;;2.90;99.90;;;;;;4950180;29;20027;-90
2021/12/10 02:50:34;;;;;;;13.13;7.43;;;3.00;99.90;;;;;;4949944;29;20110;-90
2021/12/10 02:53:02;;;;;;;13.18;8.50;;;3.00;99.90;;;;;;4958126;28;20023;-90
2021/12/10 02:55:31;;;;;;;13.60;7.65;;;3.00;99.90;;;;;;4953960;28;20103;-89
2021/12/10 02:58:04;;;;;;;14.98;8.23;;;3.00;99.90;;;;;;4948252;29;20114;-88
2021/12/10 03:00:36;;;;;;;15.33;8.53;;;3.00;99.90;;;;;;4956363;28;20047;-89
2021/12/10 03:03:02;;;;;;;15.05;7.85;;;3.00;99.90;;;;;;4964741;29;20099;-90
2021/12/10 03:05:28;;;;;;;13.82;8.38;;;3.00;99.90;;;;;;4948476;29;20034;-90
2021/12/10 03:07:55;;;;;;;14.80;8.20;;;2.90;99.90;;;;;;4966659;29;20042;-89
2021/12/10 03:10:26;;;;;;;16.83;8.25;;;3.00;99.90;;;;;;4952936;29;20027;-90
2021/12/10 03:12:52;;;;;;;13.27;7.82;;;2.90;99.90;;;;;;4966995;29;20035;-89
2021/12/10 03:15:19;;;;;;;13.15;7.93;;;2.90;99.90;;;;;;4948866;29;20065;-89
2021/12/10 03:17:48;;;;;;;12.30;8.10;;;2.90;99.90;;;;;;4966057;29;20349;-88
2021/12/10 03:20:18;;;;;;;16.30;8.02;;;2.90;99.90;;;;;;4946723;29;20030;-89
2021/12/10 03:22:44;;;;;;;15.98;8.82;;;2.90;99.90;;;;;;4964567;29;20027;-88
2021/12/10 03:25:12;;;;;;;10.93;6.63;;;2.90;99.90;;;;;;4949181;29;20087;-91
2021/12/10 03:27:39;;;;;;;12.52;7.05;;;2.90;99.90;;;;;;4953079;29;20019;-88
2021/12/10 03:30:09;;;;;;;12.98;8.10;;;2.90;99.90;;;;;;4955450;29;20395;-89
2021/12/10 03:32:37;;;;;;;13.13;7.72;;;2.90;99.90;;;;;;4959289;28;20039;-89
2021/12/10 03:35:09;;;;;;;12.07;7.57;;;2.90;99.90;;;;;;4967243;29;20051;-89
2021/12/10 03:37:37;;;;;;;16.88;7.80;;;2.90;99.90;;;;;;4950560;29;20142;-90
2021/12/10 03:40:07;;;;;;;14.38;7.70;;;2.80;99.90;;;;;;4901730;29;1143885;-89
2021/12/10 03:42:33;;;;;;;17.58;8.32;;;2.80;99.90;;;;;;4969694;29;20062;-89
2021/12/10 03:44:59;;;;;;;14.00;7.53;;;2.90;99.90;;;;;;4962749;28;20027;-89
2021/12/10 03:47:25;;;;;;;12.50;7.72;;;2.80;99.90;;;;;;4964034;28;20027;-89
2021/12/10 03:49:51;;;;;;;13.30;7.68;;;2.80;99.90;;;;;;4976722;28;20046;-88
2021/12/10 03:52:17;;;;;;;16.95;7.95;;;2.80;99.90;;;;;;4962673;28;20038;-87
2021/12/10 03:54:44;;;;;;;13.50;7.07;;;2.80;99.90;;;;;;4963993;28;20015;-90
2021/12/10 03:57:11;;;;;;;11.95;7.10;;;2.80;99.90;;;;;;4962322;28;20089;-89
2021/12/10 03:59:39;;;;;;;11.05;7.13;;;2.80;99.90;;;;;;4968489;29;20041;-89
2021/12/10 04:02:08;;;;;;;13.93;7.25;;;2.80;99.90;;;;;;4967177;29;20034;-88
2021/12/10 04:04:42;;;;;;;13.77;7.70;;;2.80;99.90;;;;;;4952117;29;20027;-90
2021/12/10 04:07:16;;;;;;;18.27;7.75;;;2.70;99.90;;;;;;4960553;29;20031;-89
2021/12/10 04:09:42;;;;;;;14.68;6.93;;;2.70;99.90;;;;;;4978869;28;20047;-89
2021/12/10 04:12:10;;;;;;;13.15;7.13;;;2.70;99.90;;;;;;4962911;28;20016;-87
2021/12/10 04:14:38;;;;;;;13.73;8.30;;;2.60;99.90;;;;;;4962218;28;20039;-89
2021/12/10 04:17:04;;;;;;;13.70;7.10;;;2.60;99.90;;;;;;4976039;29;20083;-89
2021/12/10 04:19:32;;;;;;;14.05;7.25;;;2.70;99.90;;;;;;4972557;29;20035;-88
2021/12/10 04:22:00;;;;;;;15.27;7.25;;;2.60;99.90;;;;;;4969214;29;20027;-88
2021/12/10 04:24:30;;;;;;;11.65;6.82;;;2.60;99.90;;;;;;4972105;29;20035;-89
2021/12/10 04:26:57;;;;;;;13.02;7.22;;;2.60;99.90;;;;;;4953352;29;20031;-88
2021/12/10 04:29:23;;;;;;;9.63;6.68;;;2.60;99.90;;;;;;4957757;29;20011;-87
2021/12/10 04:31:52;;;;;;;13.90;7.07;;;2.60;99.90;;;;;;4962463;28;20039;-89
2021/12/10 04:34:20;;;;;;;16.45;7.38;;;2.70;99.90;;;;;;4963641;28;20051;-88
2021/12/10 04:36:46;;;;;;;10.93;6.40;;;2.60;99.90;;;;;;4962738;28;20039;-88
2021/12/10 04:39:12;;;;;;;11.70;6.70;;;2.60;99.90;;;;;;4973663;29;20093;-88
2021/12/10 04:41:38;;;;;;;17.73;8.05;;;2.60;99.90;;;;;;4959417;28;20031;-89
2021/12/10 04:44:04;;;;;;;14.45;6.97;;;2.60;99.90;;;;;;4979717;28;20039;-90
2021/12/10 04:46:31;;;;;;;12.93;7.00;;;2.60;99.90;;;;;;4963126;28;20127;-89
2021/12/10 04:49:02;;;;;;;13.95;6.47;;;2.60;99.90;;;;;;4963132;28;20075;-89
2021/12/10 04:51:38;;;;;;;11.90;6.30;;;2.60;99.90;;;;;;4962182;28;20091;-89
2021/12/10 04:54:07;;;;;;;8.93;5.95;;;2.60;99.90;;;;;;4962393;28;20054;-89
2021/12/10 04:56:34;;;;;;;19.67;6.70;;;2.60;99.90;;;;;;4956180;29;20035;-87
2021/12/10 04:59:01;;;;;;;12.30;6.13;;;2.70;99.90;;;;;;4945717;29;20082;-90
2021/12/10 05:01:28;;;;;;;14.93;6.65;;;2.60;99.90;;;;;;4952577;29;20023;-90
2021/12/10 05:03:57;;;;;;;13.45;6.45;;;2.60;99.90;;;;;;4965659;29;20036;-91
2021/12/10 05:06:23;;;;;;;14.43;6.88;;;2.60;99.90;;;;;;4950098;29;20147;-89
2021/12/10 05:08:49;;;;;;;18.17;8.13;;;2.50;99.90;;;;;;4953372;29;20031;-89
2021/12/10 05:11:16;;;;;;;14.35;7.10;;;2.60;99.90;;;;;;4956657;29;20031;-90
2021/12/10 05:13:45;;;;;;;22.88;8.77;;;2.50;99.90;;;;;;4955471;29;20042;-89
2021/12/10 05:16:12;;;;;;;18.17;7.70;;;2.60;99.90;;;;;;4955542;29;20087;-89
2021/12/10 05:18:44;;;;;;;19.88;8.43;;;2.50;99.90;;;;;;4960998;28;20118;-89
2021/12/10 05:21:14;;;;;;;18.73;7.82;;;2.50;99.90;;;;;;4961829;28;20034;-89
2021/12/10 05:23:40;;;;;;;18.75;8.82;;;2.50;99.90;;;;;;4961344;28;20030;-90
2021/12/10 05:26:07;;;;;;;18.23;8.73;;;2.40;99.90;;;;;;4962616;28;20027;-89
2021/12/10 05:28:35;;;;;;;19.35;8.30;;;2.30;99.90;;;;;;4962798;28;20023;-90
2021/12/10 05:31:06;;;;;;;16.48;8.50;;;2.10;99.90;;;;;;4979003;28;20091;-90
2021/12/10 05:33:34;;;;;;;18.85;8.48;;;2.00;99.90;;;;;;4962260;28;20030;-89
2021/12/10 05:36:01;;;;;;;18.92;8.77;;;1.90;99.90;;;;;;4978830;28;20023;-90
2021/12/10 05:38:28;;;;;;;16.20;7.93;;;1.90;99.90;;;;;;4962188;28;20090;-89
2021/12/10 05:40:55;;;;;;;19.08;7.90;;;1.80;99.90;;;;;;4946417;28;20051;-90
2021/12/10 05:43:22;;;;;;;14.38;7.57;;;1.80;99.90;;;;;;4978559;28;20130;-88
2021/12/10 05:45:49;;;;;;;15.23;7.68;;;1.70;99.90;;;;;;4979727;29;20016;-90
2021/12/10 05:48:17;;;;;;;16.95;7.82;;;1.70;99.90;;;;;;4978635;29;20118;-89
2021/12/10 05:50:43;;;;;;;22.15;7.97;;;1.70;99.90;;;;;;4965791;28;20030;-89
2021/12/10 05:53:10;;;;;;;18.42;8.13;;;1.80;99.90;;;;;;4979456;28;20033;-89
2021/12/10 05:55:37;;;;;;;13.50;7.03;;;1.80;99.90;;;;;;4965023;29;20038;-89
2021/12/10 05:58:04;;;;;;;12.93;6.90;;;1.90;99.90;;;;;;4964386;28;20031;-90
2021/12/10 06:00:40;;;;;;;19.48;7.65;;;1.90;99.90;;;;;;4962655;29;20019;-89
2021/12/10 06:03:07;;;;;;;12.88;6.68;;;2.00;99.90;;;;;;4953197;29;20031;-90
2021/12/10 06:05:34;;;;;;;20.13;7.63;;;2.00;99.90;;;;;;4945138;28;20041;-87
2021/12/10 06:08:01;;;;;;;16.83;7.63;;;2.00;99.90;;;;;;4967882;28;20166;-91
2021/12/10 06:10:27;;;;;;;14.40;7.32;;;2.00;99.90;;;;;;4966682;29;20031;-88
2021/12/10 06:12:53;;;;;;;16.10;7.55;;;2.00;99.90;;;;;;4962738;29;20046;-89
2021/12/10 06:15:22;;;;;;;14.18;7.32;;;2.10;99.90;;;;;;4946537;29;20031;-90
2021/12/10 06:17:48;;;;;;;15.30;6.88;;;2.10;99.90;;;;;;4947391;29;20043;-88
2021/12/10 06:20:21;;;;;;;14.55;7.30;;;2.10;99.90;;;;;;4933206;29;20019;-91
2021/12/10 06:22:49;;;;;;;14.02;6.70;;;2.10;99.90;;;;;;4948500;29;20032;-89
2021/12/10 06:25:15;;;;;;;13.40;6.90;;;2.10;99.90;;;;;;4952847;29;20043;-89
2021/12/10 06:27:44;;;;;;;14.23;6.93;;;2.20;99.90;;;;;;4957831;29;20059;-89
2021/12/10 06:30:19;;;;;;;12.10;6.32;;;2.20;99.90;;;;;;4951063;29;20023;-89
2021/12/10 06:32:50;;;;;;;17.20;6.55;;;2.20;99.90;;;;;;4967714;29;20031;-90
2021/12/10 06:35:18;;;;;;;15.38;6.78;;;2.20;99.90;;;;;;4953668;29;20047;-88
2021/12/10 06:37:44;;;;;;;14.52;7.60;;;2.20;99.90;;;;;;4968944;29;20029;-89
2021/12/10 06:40:16;;;;;;;13.65;6.85;;;2.30;99.90;;;;;;4963165;23;20238;-86
2021/12/10 06:42:42;;;;;;;15.40;6.97;;;2.30;99.90;;;;;;4951557;29;20035;-86
2021/12/10 06:45:12;;;;;;;19.15;6.68;;;2.30;99.90;;;;;;4952769;29;20038;-86
2021/12/10 06:47:40;;;;;;;13.13;6.55;;;2.20;99.90;;;;;;4951539;29;20036;-86
2021/12/10 06:50:08;;;;;;;19.55;7.47;;;2.20;99.90;;;;;;4950017;28;20079;-87
2021/12/10 06:52:34;;;;;;;18.60;7.35;;;2.20;99.90;;;;;;4950668;29;20111;-85
2021/12/10 06:55:00;;;;;;;17.88;7.60;;;2.10;99.90;;;;;;4950917;29;20468;-88
2021/12/10 06:57:26;;;;;;;19.73;8.25;;;2.00;99.90;;;;;;4950106;29;20051;-87
2021/12/10 06:59:53;;;;;;;20.98;7.95;;;2.00;99.90;;;;;;4949092;29;20080;-87
2021/12/10 07:02:19;;;;;;;19.40;8.35;;;2.00;99.90;;;;;;4948514;29;20032;-86
2021/12/10 07:04:45;;;;;;;23.38;8.25;;;1.90;99.90;;;;;;4949474;29;20107;-87
2021/12/10 07:07:11;;;;;;;21.08;7.57;;;1.80;99.90;;;;;;4949860;29;20148;-85
2021/12/10 07:09:39;;;;;;;20.73;7.75;;;1.80;99.90;;;;;;4948620;29;20062;-85
2021/12/10 07:12:07;;;;;;;21.38;7.85;;;1.70;99.90;;;;;;4947681;29;20031;-87
2021/12/10 07:14:34;;;;;;;24.50;8.32;;;1.70;99.90;;;;;;4946702;29;20583;-86
2021/12/10 07:17:00;;;;;;;26.63;8.38;;;1.70;99.90;;;;;;4949750;29;20027;-87
2021/12/10 07:19:28;;;;;;;18.83;7.03;;;1.70;99.90;;;;;;4952677;29;20031;-85
2021/12/10 07:21:54;;;;;;;24.55;8.35;;;1.70;99.90;;;;;;4950214;29;20036;-86
2021/12/10 07:24:21;;;;;;;17.48;7.70;;;1.70;99.90;;;;;;4949966;29;20027;-86
2021/12/10 07:26:48;;;;;;;17.85;7.32;;;1.70;99.90;;;;;;4963689;29;20040;-84
2021/12/10 07:29:14;;;;;;;19.73;8.20;;;1.70;99.90;;;;;;4948396;29;20028;-87
2021/12/10 07:31:42;;;;;;;14.55;7.82;;;1.80;99.90;;;;;;4949986;29;20485;-85
2021/12/10 07:34:08;;;;;;;18.85;8.10;;;1.80;99.90;;;;;;4954254;29;20035;-86
2021/12/10 07:36:35;;;;;;;14.48;7.63;;;1.80;99.90;;;;;;4959739;29;20044;-85
2021/12/10 07:39:03;;;;;;;17.02;8.07;;;1.80;99.90;;;;;;4959558;29;20070;-87
2021/12/10 07:41:29;;;;;;;18.67;7.70;;;1.90;99.90;;;;;;4958655;29;20012;-86
2021/12/10 07:43:55;;;;;;;18.60;8.23;;;1.90;99.90;;;;;;4958509;29;20037;-86
2021/12/10 07:46:24;;;;;;;18.52;8.27;;;1.90;99.90;;;;;;4960344;29;20063;-86
2021/12/10 07:48:50;;;;;;;20.00;7.63;;;1.90;99.90;;;;;;4960052;29;20095;-86
2021/12/10 07:51:22;;;;;;;16.98;6.88;;;1.90;99.90;;;;;;4942593;29;20064;-84
2021/12/10 07:53:51;;;;;;;19.92;7.25;;;1.90;99.90;;;;;;4951806;29;20032;-86
2021/12/10 07:56:18;;;;;;;19.52;7.53;;;1.90;99.90;;;;;;4950349;29;20074;-87
2021/12/10 07:58:44;;;;;;;15.50;7.20;;;1.80;99.90;;;;;;4954840;29;20101;-84
2021/12/10 08:01:17;;;;;;;17.98;7.82;;;1.80;99.90;;;;;;4961059;29;20024;-84
2021/12/10 08:03:45;;;;;;;19.25;8.13;;;1.80;99.90;;;;;;4960613;29;20023;-82
2021/12/10 08:06:11;;;;;;;16.05;7.07;;;1.80;99.90;;;;;;4960340;29;20020;-82
2021/12/10 08:08:37;;;;;;;15.15;6.93;;;1.90;99.90;;;;;;4960607;29;20043;-82
2021/12/10 08:11:03;;;;;;;13.73;7.43;;;1.90;99.90;;;;;;4960687;29;20012;-83
2021/12/10 08:13:29;;;;;;;17.52;8.05;;;2.00;99.90;;;;;;4960237;29;20027;-82
2021/12/10 08:15:55;;;;;;;16.13;7.53;;;2.20;99.90;;;;;;4959488;29;20075;-87
2021/12/10 08:18:21;;;;;;;14.65;6.95;;;2.40;99.90;;;;;;4960502;29;20130;-82
2021/12/10 08:20:47;;;;;;;14.50;6.57;;;2.80;99.90;;;;;;4960779;29;20012;-82
2021/12/10 08:23:19;;;;;;;20.13;7.68;;;3.00;99.90;;;;;;4960659;29;20051;-86
2021/12/10 08:25:47;;;;;;;16.40;7.57;;;3.40;99.90;;;;;;4959038;29;20084;-85
2021/12/10 08:28:12;;;;;;;15.35;6.25;;;4.10;99.90;;;;;;4958353;29;20020;-86
2021/12/10 08:31:10;;;;;;;14.77;6.43;;;4.60;99.90;;;;;;4959359;29;20050;-84
2021/12/10 08:33:36;;;;;;;14.93;6.60;;;5.70;99.90;;;;;;4961030;29;20034;-83
2021/12/10 08:36:07;;;;;;;17.00;6.75;;;6.60;99.90;;;;;;4960222;29;20028;-84
2021/12/10 08:38:33;;;;;;;22.92;6.90;;;7.50;99.90;;;;;;4954128;29;20056;-83
2021/12/10 08:41:04;;;;;;;15.15;6.15;;;8.40;99.90;;;;;;4951346;29;20044;-83
2021/12/10 08:43:32;;;;;;;12.68;6.32;;;9.50;99.90;;;;;;4940125;29;20040;-83
2021/12/10 08:45:59;;;;;;;13.35;6.45;;;10.10;99.90;;;;;;4938196;29;20088;-87
2021/12/10 08:48:28;;;;;;;16.23;6.45;;;10.80;99.60;;;;;;4965412;29;20063;-86
2021/12/10 08:50:55;;;;;;;13.07;6.47;;;11.40;98.30;;;;;;4924546;29;20056;-86
2021/12/10 08:53:21;;;;;;;14.38;6.60;;;12.00;96.90;;;;;;4925054;29;20036;-86
2021/12/10 08:55:50;;;;;;;13.02;6.75;;;13.10;94.80;;;;;;4934718;29;20024;-83
2021/12/10 08:58:17;;;;;;;11.52;5.95;;;14.00;92.50;;;;;;4933709;29;20555;-85
2021/12/10 09:00:47;;;;;;;13.50;5.90;;;13.90;91.30;;;;;;4929547;29;20029;-85
2021/12/10 09:03:13;;;;;;;15.80;5.80;;;14.00;90.50;;;;;;4923297;29;20038;-85
2021/12/10 09:05:39;;;;;;;15.40;6.30;;;14.50;89.70;;;;;;4950664;29;20051;-84
2021/12/10 09:08:06;;;;;;;15.90;5.95;;;14.70;86.50;;;;;;4953667;29;20099;-85
2021/12/10 09:10:36;;;;;;;14.68;5.90;;;14.40;85.80;;;;;;4945314;29;20064;-87
2021/12/10 09:13:05;;;;;;;14.20;6.55;;;14.90;84.10;;;;;;4933587;29;20104;-86
2021/12/10 09:15:32;;;;;;;13.38;5.97;;;15.10;83.10;;;;;;4924951;29;20028;-85
2021/12/10 09:17:59;;;;;;;13.57;6.55;;;14.60;82.30;;;;;;4924971;29;20492;-87
2021/12/10 09:20:36;;;;;;;12.55;7.20;;;14.30;83.10;;;;;;4926745;29;20027;-87
2021/12/10 09:23:02;;;;;;;15.35;6.68;;;14.40;83.50;;;;;;4926903;29;20084;-84
2021/12/10 09:25:28;;;;;;;13.38;6.63;;;14.10;84.20;;;;;;4926263;29;20030;-87
2021/12/10 09:27:55;;;;;;;11.15;6.00;;;14.20;84.30;;;;;;4927103;29;20036;-87
2021/12/10 09:30:23;;;;;;;13.80;6.75;;;14.60;82.60;;;;;;4937676;29;20034;-87
2021/12/10 09:32:49;;;;;;;13.90;6.40;;;14.60;82.30;;;;;;4944601;29;20115;-86
2021/12/10 09:35:19;;;;;;;12.15;6.35;;;14.60;81.80;;;;;;4945759;29;20059;-87
2021/12/10 09:37:46;;;;;;;21.73;6.68;;;15.20;80.70;;;;;;4941366;29;20024;-85
2021/12/10 09:40:19;;;;;;;13.02;6.63;;;15.20;80.10;;;;;;4937265;29;20038;-86
2021/12/10 09:42:45;;;;;;;9.88;6.63;;;14.70;81.70;;;;;;4936004;29;20042;-87
2021/12/10 09:45:15;;;;;;;18.25;7.35;;;14.90;82.10;;;;;;4931116;29;20071;-86
2021/12/10 09:47:42;;;;;;;16.48;8.95;;;14.80;81.80;;;;;;4934292;29;20099;-84
2021/12/10 09:50:10;;;;;;;13.73;8.80;;;15.30;80.80;;;;;;4941520;29;20042;-86
2021/12/10 09:52:36;;;;;;;12.68;8.23;;;15.00;80.90;;;;;;4946785;29;20488;-87
2021/12/10 09:55:05;;;;;;;15.15;8.90;;;14.70;81.20;;;;;;4952314;29;20024;-83
2021/12/10 09:57:34;;;;;;;13.25;8.15;;;14.60;81.30;;;;;;4961937;29;20034;-84
2021/12/10 10:00:05;;;;;;;12.43;8.60;;;14.00;82.20;;;;;;4960392;29;20083;-84
2021/12/10 10:02:40;;;;;;;12.20;8.13;;;13.80;82.90;;;;;;4961268;29;20051;-83
2021/12/10 10:05:07;;;;;;;15.57;8.60;;;14.40;82.30;;;;;;4962188;29;20031;-84
2021/12/10 10:07:33;;;;;;;12.57;8.88;;;15.30;80.00;;;;;;4962302;29;20117;-83
2021/12/10 10:10:08;;;;;;;14.02;8.90;;;15.20;79.20;;;;;;4948047;29;20075;-84
2021/12/10 10:12:36;;;;;;;13.27;9.18;;;15.10;78.90;;;;;;4934657;29;20031;-86
2021/12/10 10:15:09;;;;;;;16.20;9.95;;;14.20;79.80;;;;;;4938048;29;20068;-85
2021/12/10 10:17:35;;;;;;;17.02;9.95;;;13.30;82.00;;;;;;4945508;29;20039;-83
2021/12/10 10:20:02;;;;;;;16.35;10.10;;;12.50;84.00;;;;;;4961880;29;20103;-83
2021/12/10 10:22:32;;;;;;;17.52;10.43;;;11.70;85.50;;;;;;4961362;28;20232;-85
2021/12/10 10:24:58;;;;;;;20.27;11.52;;;11.60;86.50;;;;;;4974230;29;20103;-84
2021/12/10 10:27:30;;;;;;;18.77;11.18;;;11.00;87.20;;;;;;4941953;29;20028;-84
2021/12/10 10:30:04;;;;;;;23.02;11.75;;;11.50;87.50;;;;;;4960605;29;20019;-83
2021/12/10 10:32:32;;;;;;;17.80;11.27;;;11.80;86.70;;;;;;4960869;29;20055;-84
2021/12/10 10:35:04;;;;;;;19.80;11.43;;;11.90;86.70;;;;;;4960055;29;20024;-83
2021/12/10 10:37:31;;;;;;;24.50;12.93;;;12.10;86.30;;;;;;4960493;29;20047;-84
2021/12/10 10:39:57;;;;;;;19.30;12.30;;;11.40;87.60;;;;;;4961147;29;20024;-84
2021/12/10 10:42:30;;;;;;;18.60;11.32;;;11.50;88.40;;;;;;4961106;29;20044;-85
2021/12/10 10:45:04;;;;;;;29.92;15.35;;;11.60;88.80;;;;;;4961081;29;20079;-82
2021/12/10 10:47:30;;;;;;;29.70;13.90;;;10.90;89.60;;;;;;4960934;29;20020;-83
2021/12/10 10:50:13;;;;;;;31.48;15.23;;;8.90;92.00;;;;;;4959213;29;20027;-83
2021/12/10 10:52:43;;;;;;;28.15;14.57;;;7.60;94.50;;;;;;4955655;29;20084;-85
2021/12/10 10:55:12;;;;;;;33.15;16.27;;;6.70;98.40;;;;;;4951530;29;20055;-85
2021/12/10 10:57:48;;;;;;;35.13;16.13;;;6.60;99.90;;;;;;4951473;29;20036;-85
2021/12/10 11:00:50;;;;;;;33.03;15.20;;;6.60;99.90;;;;;;4951067;29;20452;-85
2021/12/10 11:03:23;;;;;;;34.45;16.60;;;5.90;99.90;;;;;;4958038;29;20019;-84
2021/12/10 11:05:53;;;;;;;44.30;16.95;;;5.40;99.90;;;;;;4952599;29;20095;-86
2021/12/10 11:08:40;;;;;;;41.97;17.13;;;5.10;99.90;;;;;;4931537;29;20032;-84
2021/12/10 11:11:18;;;;;;;39.03;17.30;;;5.00;99.90;;;;;;4948824;29;20023;-84
2021/12/10 11:13:47;;;;;;;37.22;17.88;;;5.10;99.90;;;;;;4949179;29;20040;-86
2021/12/10 11:16:20;;;;;;;36.85;16.92;;;5.20;99.90;;;;;;4947099;29;20036;-85
2021/12/10 11:18:49;;;;;;;44.13;18.77;;;5.10;99.90;;;;;;4947098;29;20020;-86
2021/12/10 11:21:16;;;;;;;41.22;17.85;;;4.80;99.90;;;;;;4948766;29;20103;-90
2021/12/10 11:23:43;;;;;;;42.97;17.92;;;4.50;99.90;;;;;;4946743;29;20031;-85
2021/12/10 11:26:09;;;;;;;42.75;17.00;;;4.20;99.90;;;;;;4949091;29;20381;-83
2021/12/10 11:28:38;;;;;;;45.65;17.50;;;4.30;99.90;;;;;;4948768;29;20039;-85
2021/12/10 11:31:15;;;;;;;45.22;18.30;;;4.60;99.90;;;;;;4945235;29;20024;-84
2021/12/10 11:33:50;;;;;;;44.97;18.23;;;4.70;99.90;;;;;;4944665;29;20059;-86
2021/12/10 11:36:22;;;;;;;43.05;17.85;;;4.60;99.90;;;;;;4945975;29;20111;-86
2021/12/10 11:38:51;;;;;;;50.08;19.80;;;4.40;99.90;;;;;;4944554;29;20037;-85
2021/12/10 11:41:23;;;;;;;43.42;19.00;;;4.10;99.90;;;;;;4943061;29;20106;-83
2021/12/10 11:44:07;;;;;;;45.10;18.80;;;3.60;99.90;;;;;;4944577;29;20403;-82
2021/12/10 11:46:46;;;;;;;45.38;20.38;;;3.70;99.90;;;;;;4944841;29;20063;-86
2021/12/10 11:49:18;;;;;;;47.38;20.13;;;3.40;99.90;;;;;;4947319;29;20027;-86
2021/12/10 11:51:55;;;;;;;50.72;19.75;;;3.10;99.90;;;;;;4963029;29;20027;-85
2021/12/10 11:54:37;;;;;;;48.08;20.33;;;2.80;99.90;;;;;;4952257;29;20035;-86
2021/12/10 11:57:29;;;;;;;48.13;19.50;;;2.60;99.90;;;;;;4946598;29;20040;-87
2021/12/10 12:00:09;;;;;;;45.67;19.10;;;2.40;99.90;;;;;;4945220;29;20058;-87
2021/12/10 12:03:03;;;;;;;48.53;19.35;;;2.30;99.90;;;;;;4948903;29;20118;-85
2021/12/10 12:05:33;;;;;;;48.30;19.85;;;2.20;99.90;;;;;;4945021;29;20032;-86
2021/12/10 12:08:06;;;;;;;51.85;19.60;;;2.30;99.90;;;;;;4945247;29;20035;-86
2021/12/10 12:10:47;;;;;;;53.08;22.05;;;2.40;99.90;;;;;;4946449;29;20118;-86
2021/12/10 12:13:31;;;;;;;53.22;20.45;;;2.40;99.90;;;;;;4941611;29;20555;-83
2021/12/10 12:16:14;;;;;;;45.38;18.60;;;2.50;99.90;;;;;;4947719;29;20075;-85
2021/12/10 12:18:44;;;;;;;42.92;18.02;;;2.50;99.90;;;;;;4949191;29;20027;-85
2021/12/10 12:26:50;;;;;;;51.58;18.60;;;2.50;99.90;;;;;;4926366;29;20095;-86
2021/12/10 12:29:18;;;;;;;44.20;18.00;;;2.40;99.90;;;;;;4937830;29;20028;-86
2021/12/10 12:31:51;;;;;;;46.42;18.17;;;2.50;99.90;;;;;;4946177;29;20062;-86
2021/12/10 12:34:23;;;;;;;44.53;19.02;;;2.60;99.90;;;;;;4944634;29;20027;-85
2021/12/10 12:36:50;;;;;;;44.92;19.02;;;2.60;99.90;;;;;;4943858;29;20075;-85
2021/12/10 12:39:39;;;;;;;46.88;18.90;;;2.60;99.90;;;;;;4948016;29;20028;-85
2021/12/10 12:42:27;;;;;;;45.97;17.65;;;2.60;99.90;;;;;;4974478;23;20031;-87
2021/12/10 12:45:04;;;;;;;43.53;18.15;;;2.50;99.90;;;;;;4977627;28;20035;-87
2021/12/10 12:47:38;;;;;;;41.70;17.92;;;2.50;99.90;;;;;;4938337;29;20063;-85
2021/12/10 12:50:06;;;;;;;42.95;18.58;;;2.50;99.90;;;;;;4953832;29;20101;-86
2021/12/10 12:52:39;;;;;;;45.50;20.02;;;2.40;99.90;;;;;;4955523;29;20087;-87
2021/12/10 12:55:29;;;;;;;49.70;19.83;;;2.40;99.90;;;;;;4941421;28;20028;-85
2021/12/10 12:58:10;;;;;;;46.08;19.10;;;2.30;99.90;;;;;;4957217;29;20038;-86
2021/12/10 13:00:47;;;;;;;52.70;20.90;;;2.30;99.90;;;;;;4955644;29;20096;-86
2021/12/10 13:03:29;;;;;;;50.80;19.42;;;2.20;99.90;;;;;;4952175;29;20080;-86
2021/12/10 13:05:58;;;;;;;48.53;19.58;;;2.10;99.90;;;;;;4951139;29;20051;-87
2021/12/10 13:08:28;;;;;;;49.20;20.23;;;2.10;99.90;;;;;;4944757;29;20023;-85
2021/12/10 13:11:22;;;;;;;50.90;20.15;;;2.10;99.90;;;;;;4972216;28;20016;-85